createdAt,value
2024-01-16T00:00:09.524Z,75.67
2024-01-16T00:02:39.857Z,76.34
2024-01-16T00:05:11.389Z,76.33
2024-01-16T00:07:42.382Z,76.00
2024-01-16T00:10:12.022Z,75.72
2024-01-16T00:12:41.293Z,76.05
2024-01-16T00:15:14.174Z,75.75
2024-01-16T00:17:42.370Z,76.06
2024-01-16T00:20:12.170Z,75.51
2024-01-16T00:22:40.139Z,75.75
2024-01-16T00:25:09.306Z,75.36
2024-01-16T00:27:37.300Z,75.49
2024-01-16T00:30:06.410Z,75.66
2024-01-16T00:32:35.761Z,75.98
2024-01-16T00:35:04.175Z,76.03
2024-01-16T00:37:32.260Z,74.78
2024-01-16T00:40:00.467Z,76.15
2024-01-16T00:42:28.425Z,75.79
2024-01-16T00:44:57.830Z,74.77
2024-01-16T00:47:29.163Z,74.88
2024-01-16T00:49:58.513Z,75.33
2024-01-16T00:52:26.634Z,74.71
2024-01-16T00:54:56.672Z,75.72
2024-01-16T00:57:28.001Z,74.33
2024-01-16T00:59:59.810Z,75.28
2024-01-16T01:02:27.839Z,74.55
2024-01-16T01:04:55.833Z,74.72
2024-01-16T01:07:26.576Z,74.92
2024-01-16T01:09:54.789Z,75.27
2024-01-16T01:12:24.328Z,74.38
2024-01-16T01:14:52.736Z,74.27
2024-01-16T01:17:20.873Z,74.99
2024-01-16T01:19:48.893Z,75.02
2024-01-16T01:22:17.817Z,74.57
2024-01-16T01:24:47.533Z,74.70
2024-01-16T01:27:15.489Z,74.30
2024-01-16T01:29:43.473Z,74.75
2024-01-16T01:32:11.875Z,74.95
2024-01-16T01:34:40.846Z,74.22
2024-01-16T01:37:08.762Z,74.99
2024-01-16T01:39:36.682Z,74.26
2024-01-16T01:42:06.411Z,73.81
2024-01-16T01:44:34.542Z,73.96
2024-01-16T01:47:02.779Z,74.33
2024-01-16T01:49:30.985Z,74.54
2024-01-16T01:51:59.156Z,74.53
2024-01-16T01:54:28.052Z,75.24
2024-01-16T01:56:56.172Z,74.36
2024-01-16T01:59:26.661Z,74.53
2024-01-16T02:01:55.290Z,74.63
2024-01-16T02:04:24.424Z,75.41
2024-01-16T02:06:52.365Z,74.12
2024-01-16T02:09:21.478Z,73.74
2024-01-16T02:11:53.047Z,72.51
2024-01-16T02:14:25.075Z,74.06
2024-01-16T02:16:56.334Z,72.91
2024-01-16T02:19:26.651Z,73.17
2024-01-16T02:22:03.149Z,73.68
2024-01-16T02:24:32.901Z,73.39
2024-01-16T02:27:01.218Z,73.10
2024-01-16T02:29:29.272Z,73.55
2024-01-16T02:31:59.582Z,73.05
2024-01-16T02:34:27.563Z,72.85
2024-01-16T02:36:55.839Z,73.90
2024-01-16T02:39:23.997Z,73.47
2024-01-16T02:41:57.912Z,72.89
2024-01-16T02:44:28.342Z,72.86
2024-01-16T02:46:56.329Z,72.62
2024-01-16T02:49:26.941Z,72.50
2024-01-16T02:51:55.628Z,72.95
2024-01-16T02:54:24.612Z,72.81
2024-01-16T02:56:54.041Z,72.99
2024-01-16T02:59:22.298Z,72.48
2024-01-16T03:01:50.465Z,72.72
2024-01-16T03:04:18.613Z,72.19
2024-01-16T03:06:46.670Z,73.60
2024-01-16T03:09:14.777Z,72.87
2024-01-16T03:11:42.870Z,73.37
2024-01-16T03:14:12.237Z,72.55
2024-01-16T03:16:42.376Z,72.31
2024-01-16T03:19:10.446Z,72.54
2024-01-16T03:21:38.985Z,72.35
2024-01-16T03:24:07.851Z,72.27
2024-01-16T03:26:36.868Z,73.36
2024-01-16T03:29:07.811Z,72.64
2024-01-16T03:31:37.120Z,72.45
2024-01-16T03:34:05.157Z,72.35
2024-01-16T03:36:33.045Z,72.43
2024-01-16T03:39:01.418Z,72.83
2024-01-16T03:41:29.396Z,72.53
2024-01-16T03:44:03.726Z,72.03
2024-01-16T03:46:31.834Z,71.75
2024-01-16T03:49:01.342Z,72.25
2024-01-16T03:51:32.342Z,72.49
2024-01-16T03:54:02.946Z,72.48
2024-01-16T03:56:31.242Z,72.81
2024-01-16T03:58:59.561Z,72.02
2024-01-16T04:01:38.142Z,71.99
2024-01-16T04:04:08.409Z,72.19
2024-01-16T04:06:36.732Z,71.72
2024-01-16T04:09:05.820Z,72.42
2024-01-16T04:11:34.050Z,72.61
2024-01-16T04:14:02.158Z,72.37
2024-01-16T04:16:32.336Z,72.57
2024-01-16T04:19:03.145Z,72.37
2024-01-16T04:21:32.500Z,72.20
2024-01-16T04:24:00.498Z,72.28
2024-01-16T04:26:28.704Z,72.16
2024-01-16T04:28:59.733Z,72.02
2024-01-16T04:31:28.041Z,72.49
2024-01-16T04:34:00.928Z,72.49
2024-01-16T04:36:29.245Z,71.73
2024-01-16T04:39:01.108Z,72.20
2024-01-16T04:41:29.539Z,72.14
2024-01-16T04:43:57.901Z,72.07
2024-01-16T04:46:25.888Z,71.72
2024-01-16T04:48:54.255Z,72.44
2024-01-16T04:51:22.346Z,72.10
2024-01-16T04:53:50.539Z,71.85
2024-01-16T04:56:26.590Z,72.53
2024-01-16T04:58:54.799Z,72.78
2024-01-16T05:01:22.856Z,72.77
2024-01-16T05:03:50.858Z,72.12
2024-01-16T05:06:18.995Z,72.06
2024-01-16T05:08:50.538Z,71.58
2024-01-16T05:11:21.136Z,72.60
2024-01-16T05:13:50.860Z,71.75
2024-01-16T05:16:20.006Z,72.11
2024-01-16T05:18:49.648Z,71.52
2024-01-16T05:21:18.026Z,71.94
2024-01-16T05:23:46.518Z,71.74
2024-01-16T05:26:17.566Z,72.27
2024-01-16T05:28:45.504Z,71.64
2024-01-16T05:31:14.773Z,72.19
2024-01-16T05:33:43.558Z,72.48
2024-01-16T05:36:11.579Z,71.58
2024-01-16T05:38:40.046Z,71.94
2024-01-16T05:41:08.916Z,71.86
2024-01-16T05:43:45.756Z,71.72
2024-01-16T05:46:15.136Z,71.79
2024-01-16T05:48:46.871Z,71.33
2024-01-16T05:51:19.329Z,70.96
2024-01-16T05:53:47.386Z,71.54
2024-01-16T05:56:15.849Z,71.60
2024-01-16T05:58:44.059Z,71.78
2024-01-16T06:01:14.493Z,72.22
2024-01-16T06:03:46.508Z,72.03
2024-01-16T06:06:14.718Z,71.40
2024-01-16T06:08:43.064Z,72.29
2024-01-16T06:11:14.181Z,72.00
2024-01-16T06:13:42.714Z,72.07
2024-01-16T06:16:10.997Z,72.14
2024-01-16T06:18:39.070Z,72.38
2024-01-16T06:21:09.235Z,73.01
2024-01-16T06:23:37.709Z,72.77
2024-01-16T06:26:06.157Z,72.12
2024-01-16T06:28:34.072Z,72.20
2024-01-16T06:31:02.132Z,72.37
2024-01-16T06:33:31.548Z,73.00
2024-01-16T06:35:59.757Z,72.52
2024-01-16T06:38:29.820Z,72.32
2024-01-16T06:40:58.020Z,72.53
2024-01-16T06:43:26.378Z,71.54
2024-01-16T06:45:54.645Z,72.22
2024-01-16T06:48:22.837Z,72.07
2024-01-16T06:50:50.958Z,72.76
2024-01-16T06:53:19.189Z,72.71
2024-01-16T06:55:50.266Z,72.49
2024-01-16T06:58:18.482Z,72.49
2024-01-16T07:00:48.868Z,73.00
2024-01-16T07:03:18.154Z,72.62
2024-01-16T07:05:46.313Z,72.75
2024-01-16T07:08:14.520Z,71.86
2024-01-16T07:10:47.242Z,71.61
2024-01-16T07:13:16.578Z,71.33
2024-01-16T07:15:46.785Z,71.78
2024-01-16T07:18:15.154Z,71.07
2024-01-16T07:20:46.634Z,71.33
2024-01-16T07:23:14.782Z,71.69
2024-01-16T07:25:42.763Z,72.51
2024-01-16T07:28:10.718Z,71.76
2024-01-16T07:30:41.081Z,72.20
2024-01-16T07:33:09.261Z,71.84
2024-01-16T07:35:42.350Z,71.92
2024-01-16T07:38:10.382Z,71.61
2024-01-16T07:40:39.255Z,71.69
2024-01-16T07:43:09.412Z,71.63
2024-01-16T07:45:37.386Z,72.34
2024-01-16T07:48:07.354Z,71.35
2024-01-16T07:50:35.545Z,71.70
2024-01-16T07:53:06.336Z,71.77
2024-01-16T07:55:34.526Z,71.14
2024-01-16T07:58:04.994Z,71.39
2024-01-16T08:00:33.245Z,71.13
2024-01-16T08:03:04.416Z,71.41
2024-01-16T08:05:34.250Z,71.70
2024-01-16T08:08:04.556Z,71.33
2024-01-16T08:10:32.518Z,71.19
2024-01-16T08:13:00.460Z,71.39
2024-01-16T08:15:28.413Z,71.85
2024-01-16T08:17:57.206Z,71.34
2024-01-16T08:20:27.341Z,71.63
2024-01-16T08:22:56.941Z,71.44
2024-01-16T08:25:25.092Z,72.52
2024-01-16T08:27:52.977Z,72.06
2024-01-16T08:30:24.421Z,71.65
2024-01-16T08:32:52.694Z,72.01
2024-01-16T08:35:21.042Z,71.82
2024-01-16T08:37:52.876Z,71.81
2024-01-16T08:40:29.709Z,71.52
2024-01-16T08:42:58.406Z,71.81
2024-01-16T08:45:27.396Z,71.58
2024-01-16T08:47:55.637Z,71.82
2024-01-16T08:50:24.335Z,72.20
2024-01-16T08:52:52.661Z,72.45
2024-01-16T08:55:21.238Z,71.96
2024-01-16T08:57:50.803Z,71.73
2024-01-16T09:00:22.040Z,72.08
2024-01-16T09:02:50.762Z,71.12
2024-01-16T09:05:23.193Z,72.29
2024-01-16T09:07:51.221Z,72.46
2024-01-16T09:10:21.101Z,72.06
2024-01-16T09:12:56.594Z,71.68
2024-01-16T09:15:26.435Z,71.50
2024-01-16T09:17:54.572Z,71.36
2024-01-16T09:20:23.053Z,70.73
2024-01-16T09:22:54.340Z,70.99
2024-01-16T09:25:25.091Z,70.60
2024-01-16T09:27:54.311Z,71.15
2024-01-16T09:30:26.695Z,71.47
2024-01-16T09:32:55.168Z,71.67
2024-01-16T09:35:23.885Z,72.04
2024-01-16T09:37:52.129Z,72.35
2024-01-16T09:40:20.318Z,71.87
2024-01-16T09:42:49.120Z,71.74
2024-01-16T09:45:22.034Z,69.89
2024-01-16T09:47:53.640Z,69.90
2024-01-16T09:50:22.582Z,70.29
2024-01-16T09:52:51.071Z,70.32
2024-01-16T09:55:19.189Z,69.86
2024-01-16T09:57:48.109Z,70.37
2024-01-16T10:00:17.918Z,69.72
2024-01-16T10:02:46.110Z,69.67
2024-01-16T10:05:16.212Z,69.32
2024-01-16T10:07:45.879Z,69.36
2024-01-16T10:10:15.366Z,69.49
2024-01-16T10:12:47.290Z,69.68
2024-01-16T10:15:16.454Z,69.68
2024-01-16T10:17:44.768Z,69.90
2024-01-16T10:20:17.688Z,69.86
2024-01-16T10:22:55.034Z,69.01
2024-01-16T10:25:25.200Z,69.42
2024-01-16T10:28:06.964Z,69.21
2024-01-16T10:30:37.944Z,69.30
2024-01-16T10:33:17.670Z,68.37
2024-01-16T10:35:47.548Z,68.54
2024-01-16T10:38:22.493Z,68.66
2024-01-16T10:40:50.564Z,69.19
2024-01-16T10:43:20.257Z,69.20
2024-01-16T10:45:48.166Z,69.16
2024-01-16T10:48:17.175Z,69.01
2024-01-16T10:50:49.034Z,68.92
2024-01-16T10:53:18.901Z,67.97
2024-01-16T10:55:53.243Z,68.13
2024-01-16T10:58:21.847Z,67.82
2024-01-16T11:00:54.717Z,67.38
2024-01-16T11:03:28.176Z,67.48
2024-01-16T11:06:02.231Z,66.29
2024-01-16T11:08:34.926Z,66.98
2024-01-16T11:11:09.115Z,66.91
2024-01-16T11:13:38.468Z,67.12
2024-01-16T11:16:08.216Z,67.78
2024-01-16T11:18:37.845Z,66.91
2024-01-16T11:21:12.122Z,66.22
2024-01-16T11:23:43.266Z,66.79
2024-01-16T11:26:30.604Z,65.64
2024-01-16T11:29:00.342Z,66.71
2024-01-16T11:31:33.469Z,66.73
2024-01-16T11:34:02.571Z,66.28
2024-01-16T11:36:55.481Z,65.79
2024-01-16T11:39:25.998Z,66.83
2024-01-16T11:41:56.415Z,66.05
2024-01-16T11:44:42.440Z,65.75
2024-01-16T11:47:10.763Z,66.39
2024-01-16T11:49:39.242Z,67.03
2024-01-16T11:52:08.842Z,65.90
2024-01-16T11:54:40.062Z,66.37
2024-01-16T11:57:48.604Z,66.44
2024-01-16T12:00:24.930Z,67.15
2024-01-16T12:02:58.405Z,67.06
2024-01-16T12:05:27.516Z,66.31
2024-01-16T12:07:57.297Z,65.95
2024-01-16T12:10:27.158Z,66.30
2024-01-16T12:13:02.868Z,66.52
2024-01-16T12:15:33.996Z,65.40
2024-01-16T12:18:04.925Z,65.18
2024-01-16T12:20:34.191Z,64.95
2024-01-16T12:23:05.520Z,65.50
2024-01-16T12:26:00.986Z,65.01
2024-01-16T12:31:00.193Z,63.96
2024-01-16T12:33:31.885Z,63.25
2024-01-16T12:36:07.279Z,63.33
2024-01-16T12:38:37.015Z,64.11
2024-01-16T12:41:09.397Z,64.37
2024-01-16T12:43:38.164Z,64.18
2024-01-16T12:46:07.669Z,63.90
2024-01-16T12:48:35.838Z,63.76
2024-01-16T12:51:06.141Z,63.62
2024-01-16T12:53:38.522Z,64.05
2024-01-16T12:56:09.161Z,64.34
2024-01-16T12:58:41.595Z,64.16
2024-01-16T13:01:38.533Z,63.70
2024-01-16T13:04:09.071Z,63.76
2024-01-16T13:06:40.568Z,64.21
2024-01-16T13:09:16.219Z,65.04
2024-01-16T13:11:48.891Z,63.82
2024-01-16T13:14:17.620Z,63.29
2024-01-16T13:16:45.657Z,61.12
2024-01-16T13:19:13.712Z,61.46
2024-01-16T13:21:41.867Z,62.41
2024-01-16T13:24:13.791Z,61.78
2024-01-16T13:26:42.837Z,61.93
2024-01-16T13:29:13.775Z,62.64
2024-01-16T13:31:42.477Z,63.82
2024-01-16T13:34:10.609Z,64.45
2024-01-16T13:37:00.121Z,63.46
2024-01-16T13:39:41.545Z,63.21
2024-01-16T13:42:09.791Z,63.45
2024-01-16T13:44:39.439Z,62.20
2024-01-16T13:47:11.694Z,61.93
2024-01-16T13:49:43.731Z,63.29
2024-01-16T13:52:11.797Z,63.33
2024-01-16T13:54:43.102Z,63.55
2024-01-16T13:57:13.797Z,63.49
2024-01-16T13:59:42.403Z,63.45
2024-01-16T14:02:10.770Z,62.64
2024-01-16T14:04:39.696Z,63.31
2024-01-16T14:07:12.640Z,63.72
2024-01-16T14:09:45.408Z,62.64
2024-01-16T14:12:15.520Z,62.72
2024-01-16T14:14:44.410Z,63.13
2024-01-16T14:17:13.745Z,63.35
2024-01-16T14:19:42.122Z,62.57
2024-01-16T14:22:11.989Z,63.10
2024-01-16T14:24:39.973Z,62.96
2024-01-16T14:27:10.489Z,62.90
2024-01-16T14:29:41.959Z,63.08
2024-01-16T14:32:11.148Z,63.01
2024-01-16T14:34:39.593Z,63.12
2024-01-16T14:37:09.916Z,61.94
2024-01-16T14:39:38.219Z,62.74
2024-01-16T14:42:07.275Z,61.51
2024-01-16T14:44:37.193Z,61.80
2024-01-16T14:47:05.465Z,62.69
2024-01-16T14:49:34.130Z,61.88
2024-01-16T14:52:02.632Z,62.31
2024-01-16T14:54:30.963Z,62.71
2024-01-16T14:56:59.446Z,63.04
2024-01-16T14:59:27.746Z,62.82
2024-01-16T15:01:57.148Z,63.38
2024-01-16T15:04:27.322Z,63.56
2024-01-16T15:06:57.371Z,65.16
2024-01-16T15:09:28.508Z,65.39
2024-01-16T15:11:56.535Z,65.06
2024-01-16T15:14:24.586Z,64.73
2024-01-16T15:16:53.029Z,65.02
2024-01-16T15:19:27.622Z,65.39
2024-01-16T15:21:59.414Z,65.54
2024-01-16T15:24:31.628Z,65.26
2024-01-16T15:26:59.954Z,65.69
2024-01-16T15:29:28.393Z,65.46
2024-01-16T15:32:07.465Z,65.18
2024-01-16T15:34:38.530Z,65.71
2024-01-16T15:37:06.945Z,66.06
2024-01-16T15:39:36.336Z,66.37
2024-01-16T15:42:04.583Z,65.28
2024-01-16T15:44:36.026Z,66.01
2024-01-16T15:47:06.744Z,66.58
2024-01-16T15:49:38.518Z,66.62
2024-01-16T15:52:10.303Z,66.79
2024-01-16T15:54:41.549Z,66.85
2024-01-16T15:57:09.950Z,66.86
2024-01-16T15:59:38.021Z,66.80
2024-01-16T16:02:06.601Z,66.72
2024-01-16T16:04:36.170Z,66.96
2024-01-16T16:07:04.408Z,66.97
2024-01-16T16:09:43.353Z,67.12
2024-01-16T16:12:11.292Z,67.56
2024-01-16T16:14:41.768Z,67.87
2024-01-16T16:17:09.949Z,67.58
2024-01-16T16:19:39.486Z,68.08
2024-01-16T16:22:10.698Z,68.05
2024-01-16T16:24:38.797Z,67.88
2024-01-16T16:27:24.727Z,68.00
2024-01-16T16:29:55.183Z,68.38
2024-01-16T16:32:23.440Z,68.01
2024-01-16T16:34:52.767Z,67.94
2024-01-16T16:37:22.547Z,68.63
2024-01-16T16:39:51.497Z,68.19
2024-01-16T16:42:23.570Z,68.70
2024-01-16T16:44:51.523Z,69.63
2024-01-16T16:47:19.966Z,69.30
2024-01-16T16:49:48.085Z,69.57
2024-01-16T16:52:17.810Z,69.36
2024-01-16T16:54:47.567Z,68.71
2024-01-16T16:57:18.544Z,69.12
2024-01-16T16:59:48.404Z,69.02
2024-01-16T17:02:21.155Z,68.60
2024-01-16T17:04:52.725Z,68.56
2024-01-16T17:07:22.160Z,68.56
2024-01-16T17:09:50.198Z,68.42
2024-01-16T17:12:21.287Z,69.13
2024-01-16T17:14:51.283Z,69.17
2024-01-16T17:17:19.346Z,69.69
2024-01-16T17:19:47.305Z,69.31
2024-01-16T17:22:16.160Z,69.55
2024-01-16T17:24:45.519Z,69.17
2024-01-16T17:27:15.932Z,69.27
2024-01-16T17:29:49.983Z,69.13
2024-01-16T17:32:19.840Z,69.47
2024-01-16T17:34:48.200Z,69.35
2024-01-16T17:37:16.722Z,69.28
2024-01-16T17:39:56.560Z,68.71
2024-01-16T17:42:24.934Z,69.20
2024-01-16T17:44:59.839Z,69.76
2024-01-16T17:47:30.850Z,69.80
2024-01-16T17:49:59.135Z,69.60
2024-01-16T17:52:30.290Z,70.13
2024-01-16T17:55:00.966Z,70.36
2024-01-16T17:57:30.109Z,70.32
2024-01-16T18:00:01.256Z,70.56
2024-01-16T18:02:32.414Z,70.71
2024-01-16T18:05:02.865Z,71.09
2024-01-16T18:07:30.905Z,70.87
2024-01-16T18:10:00.378Z,71.27
2024-01-16T18:12:29.657Z,71.36
2024-01-16T18:15:00.973Z,71.33
2024-01-16T18:17:30.167Z,71.04
2024-01-16T18:20:01.462Z,71.23
2024-01-16T18:22:29.627Z,71.17
2024-01-16T18:24:58.095Z,71.42
2024-01-16T18:27:27.742Z,70.87
2024-01-16T18:29:57.562Z,70.99
2024-01-16T18:32:25.770Z,71.24
2024-01-16T18:34:54.285Z,71.29
2024-01-16T18:37:25.908Z,70.98
2024-01-16T18:39:56.598Z,70.92
2024-01-16T18:42:24.871Z,70.51
2024-01-16T18:44:55.124Z,71.05
2024-01-16T18:47:25.601Z,71.21
2024-01-16T18:49:53.997Z,71.40
2024-01-16T18:52:22.038Z,71.77
2024-01-16T18:54:51.939Z,71.55
2024-01-16T18:57:21.159Z,71.61
2024-01-16T18:59:49.401Z,71.42
2024-01-16T19:02:22.304Z,71.97
2024-01-16T19:04:58.825Z,71.91
2024-01-16T19:07:33.189Z,71.55
2024-01-16T19:10:07.020Z,71.86
2024-01-16T19:12:35.240Z,72.01
2024-01-16T19:15:07.147Z,72.00
2024-01-16T19:17:42.308Z,72.50
2024-01-16T19:20:24.854Z,72.47
2024-01-16T19:22:57.160Z,72.37
2024-01-16T19:25:26.844Z,72.85
2024-01-16T19:27:58.841Z,72.54
2024-01-16T19:30:27.495Z,73.28
2024-01-16T19:32:58.316Z,73.65
2024-01-16T19:35:26.946Z,73.96
2024-01-16T19:37:55.875Z,73.73
2024-01-16T19:40:25.711Z,73.38
2024-01-16T19:42:55.561Z,74.24
2024-01-16T19:45:24.077Z,74.20
2024-01-16T19:47:52.159Z,74.29
2024-01-16T19:50:22.956Z,74.90
2024-01-16T19:52:53.018Z,74.65
2024-01-16T19:55:23.025Z,74.95
2024-01-16T19:57:56.346Z,75.22
2024-01-16T20:00:24.821Z,75.07
2024-01-16T20:02:55.605Z,74.93
2024-01-16T20:05:27.082Z,75.57
2024-01-16T20:07:57.860Z,75.23
2024-01-16T20:10:27.209Z,76.02
2024-01-16T20:12:55.612Z,75.34
2024-01-16T20:15:27.217Z,75.52
2024-01-16T20:17:59.421Z,75.32
2024-01-16T20:20:32.089Z,75.28
2024-01-16T20:23:03.848Z,75.04
2024-01-16T20:25:34.495Z,74.77
2024-01-16T20:28:04.991Z,74.17
2024-01-16T20:30:38.028Z,74.59
2024-01-16T20:33:08.393Z,75.81
2024-01-16T20:35:37.766Z,76.13
2024-01-16T20:38:05.844Z,76.36
2024-01-16T20:40:34.063Z,76.40
2024-01-16T20:43:02.227Z,76.64
2024-01-16T20:45:30.376Z,76.54
2024-01-16T20:47:58.666Z,76.54
2024-01-16T20:50:27.008Z,76.42
2024-01-16T20:53:00.906Z,76.54
2024-01-16T20:55:30.227Z,76.41
2024-01-16T20:57:59.436Z,76.99
2024-01-16T21:00:30.192Z,76.74
2024-01-16T21:02:58.436Z,77.27
2024-01-16T21:05:26.837Z,77.47
2024-01-16T21:07:55.140Z,77.74
2024-01-16T21:10:24.802Z,77.89
2024-01-16T21:12:53.307Z,78.07
2024-01-16T21:15:22.044Z,78.62
2024-01-16T21:17:50.305Z,78.10
2024-01-16T21:20:18.354Z,79.00
2024-01-16T21:22:46.453Z,79.51
2024-01-16T21:25:16.741Z,79.41
2024-01-16T21:27:46.485Z,79.81
2024-01-16T21:30:15.902Z,79.39
2024-01-16T21:32:46.833Z,79.08
2024-01-16T21:35:16.135Z,79.44
2024-01-16T21:37:44.571Z,79.44
2024-01-16T21:40:13.433Z,79.15
2024-01-16T21:42:42.197Z,79.57
2024-01-16T21:45:14.839Z,79.20
2024-01-16T21:47:43.799Z,78.89
2024-01-16T21:50:13.490Z,79.03
2024-01-16T21:52:42.652Z,78.47
2024-01-16T21:55:10.850Z,78.40
2024-01-16T21:57:39.996Z,78.90
2024-01-16T22:00:13.079Z,78.59
2024-01-16T22:02:44.277Z,79.06
2024-01-16T22:05:12.661Z,79.37
2024-01-16T22:07:42.235Z,79.15
2024-01-16T22:10:14.577Z,79.79
2024-01-16T22:12:42.577Z,80.13
2024-01-16T22:15:12.905Z,80.16
2024-01-16T22:17:42.967Z,80.09
2024-01-16T22:20:12.239Z,80.09
2024-01-16T22:22:41.685Z,80.44
2024-01-16T22:25:14.856Z,80.19
2024-01-16T22:27:42.938Z,79.95
2024-01-16T22:30:13.814Z,79.72
2024-01-16T22:32:45.002Z,79.95
2024-01-16T22:35:13.272Z,79.97
2024-01-16T22:37:47.705Z,80.10
2024-01-16T22:40:17.504Z,79.72
2024-01-16T22:42:45.960Z,79.98
2024-01-16T22:45:16.196Z,79.59
2024-01-16T22:47:44.535Z,79.97
2024-01-16T22:50:13.396Z,79.82
2024-01-16T22:52:41.751Z,80.14
2024-01-16T22:55:10.745Z,80.29
2024-01-16T22:57:38.823Z,80.19
2024-01-16T23:00:18.385Z,79.48
2024-01-16T23:02:48.625Z,79.99
2024-01-16T23:05:18.095Z,79.96
2024-01-16T23:07:46.574Z,80.48
2024-01-16T23:10:22.373Z,80.49
2024-01-16T23:12:52.366Z,80.28
2024-01-16T23:15:20.962Z,80.63
2024-01-16T23:17:50.447Z,80.61
2024-01-16T23:20:20.932Z,80.17
2024-01-16T23:22:49.340Z,80.33
2024-01-16T23:25:17.520Z,80.42
2024-01-16T23:27:48.509Z,80.20
2024-01-16T23:30:16.738Z,81.01
2024-01-16T23:32:48.027Z,80.73
2024-01-16T23:35:17.787Z,81.25
2024-01-16T23:37:49.315Z,81.25
2024-01-16T23:40:19.574Z,80.32
2024-01-16T23:42:47.894Z,80.70
2024-01-16T23:45:32.774Z,80.90
2024-01-16T23:48:02.012Z,81.00
2024-01-16T23:50:31.609Z,81.53
2024-01-16T23:53:00.170Z,81.25
2024-01-16T23:55:28.730Z,81.15
2024-01-16T23:58:00.303Z,81.06
